Time;durP1;ratioP1;P1;durP2;ratioP2;P2;SDS_P1;SDS_P2;PMS_P1;PMS_P2;Temp;Humidity;BMP_temperature;BMP_pressure;BME280_temperature;BME280_humidity;BME280_pressure;Samples;Min_cycle;Max_cycle;Signal;HPM_P1;HPM_P2
2023/04/11 00:02:17;;;;;;;9.88;3.05;;;;;;;;;;5050972;28;20102;-75
2023/04/11 00:04:43;;;;;;;12.13;3.00;;;;;;;;;;5050518;28;20114;-74
2023/04/11 00:07:09;;;;;;;6.53;2.20;;;;;;;;;;5051218;28;20148;-75
2023/04/11 00:09:36;;;;;;;9.70;2.60;;;;;;;;;;5051948;28;20056;-75
2023/04/11 00:12:02;;;;;;;8.43;2.47;;;;;;;;;;5049635;28;20052;-74
2023/04/11 00:14:31;;;;;;;9.60;3.10;;;;;;;;;;5051612;28;20051;-75
2023/04/11 00:16:59;;;;;;;8.23;2.33;;;;;;;;;;5052033;28;20045;-75
2023/04/11 00:19:27;;;;;;;9.77;2.95;;;;;;;;;;5052001;28;20041;-75
2023/04/11 00:21:57;;;;;;;10.43;2.63;;;;;;;;;;5052311;28;20532;-75
2023/04/11 00:24:26;;;;;;;11.43;3.00;;;;;;;;;;5048226;28;20044;-76
2023/04/11 00:26:53;;;;;;;17.58;3.40;;;;;;;;;;5050509;28;20052;-76
2023/04/11 00:29:19;;;;;;;9.57;2.97;;;;;;;;;;5051570;28;20064;-75
2023/04/11 00:31:45;;;;;;;13.10;2.95;;;;;;;;;;5050601;28;20061;-75
2023/04/11 00:34:11;;;;;;;15.70;3.42;;;;;;;;;;5052020;28;20045;-75
2023/04/11 00:36:40;;;;;;;9.95;2.75;;;;;;;;;;5051696;28;20131;-75
2023/04/11 00:39:06;;;;;;;14.23;3.17;;;;;;;;;;5051876;28;20049;-75
2023/04/11 00:41:32;;;;;;;16.38;3.63;;;;;;;;;;5051633;28;20066;-75
2023/04/11 00:43:58;;;;;;;15.05;4.00;;;;;;;;;;5050495;28;20498;-75
2023/04/11 00:46:25;;;;;;;14.23;3.58;;;;;;;;;;5050787;28;20183;-75
2023/04/11 00:48:51;;;;;;;16.45;3.80;;;;;;;;;;5052071;28;20099;-75
2023/04/11 00:51:17;;;;;;;14.98;3.70;;;;;;;;;;5050566;28;20045;-76
2023/04/11 00:53:44;;;;;;;15.02;3.60;;;;;;;;;;5051735;28;20394;-76
2023/04/11 00:56:10;;;;;;;13.25;3.42;;;;;;;;;;5050833;28;20114;-75
2023/04/11 00:58:37;;;;;;;17.17;4.03;;;;;;;;;;5050833;28;20045;-75
2023/04/11 01:01:08;;;;;;;17.25;3.78;;;;;;;;;;5051870;28;20048;-75
2023/04/11 01:03:36;;;;;;;17.48;4.28;;;;;;;;;;5050996;28;20052;-75
2023/04/11 01:06:02;;;;;;;16.55;3.70;;;;;;;;;;5048645;28;20095;-75
2023/04/11 01:08:29;;;;;;;18.98;4.38;;;;;;;;;;5050425;28;20045;-76
2023/04/11 01:10:55;;;;;;;22.67;4.38;;;;;;;;;;5054100;28;20397;-76
2023/04/11 01:13:21;;;;;;;21.10;4.45;;;;;;;;;;5052244;28;20488;-75
2023/04/11 01:15:47;;;;;;;22.55;4.00;;;;;;;;;;5055533;28;20178;-75
2023/04/11 01:18:14;;;;;;;15.40;4.00;;;;;;;;;;5054193;28;20369;-75
2023/04/11 01:20:40;;;;;;;12.52;3.55;;;;;;;;;;5055280;28;20073;-74
2023/04/11 01:23:08;;;;;;;22.10;4.78;;;;;;;;;;5055304;28;20075;-75
2023/04/11 01:25:34;;;;;;;14.40;3.80;;;;;;;;;;5054093;28;20217;-75
2023/04/11 01:28:00;;;;;;;19.10;4.30;;;;;;;;;;5054299;28;20388;-75
2023/04/11 01:30:26;;;;;;;15.50;3.70;;;;;;;;;;5055128;28;20079;-75
2023/04/11 01:32:52;;;;;;;16.40;3.90;;;;;;;;;;5036647;28;20057;-75
2023/04/11 01:35:19;;;;;;;16.17;3.33;;;;;;;;;;5054695;28;20048;-75
2023/04/11 01:37:45;;;;;;;20.50;3.45;;;;;;;;;;5037378;28;20091;-76
2023/04/11 01:40:12;;;;;;;14.85;4.00;;;;;;;;;;5037243;28;20396;-75
2023/04/11 01:42:39;;;;;;;20.02;3.85;;;;;;;;;;5055187;28;20049;-76
2023/04/11 01:45:05;;;;;;;17.75;3.70;;;;;;;;;;5054925;28;20099;-75
2023/04/11 01:47:31;;;;;;;12.38;3.00;;;;;;;;;;5035607;28;20064;-75
2023/04/11 01:49:57;;;;;;;15.15;3.28;;;;;;;;;;5054804;28;20107;-75
2023/04/11 01:52:24;;;;;;;13.55;3.28;;;;;;;;;;5036866;28;20079;-76
2023/04/11 01:54:50;;;;;;;13.02;3.13;;;;;;;;;;5054976;28;20041;-75
2023/04/11 01:57:16;;;;;;;12.57;2.58;;;;;;;;;;5054435;28;20041;-75
2023/04/11 01:59:42;;;;;;;11.68;2.40;;;;;;;;;;5036173;28;20084;-75
2023/04/11 02:02:08;;;;;;;11.80;2.35;;;;;;;;;;5054427;28;20083;-75
2023/04/11 02:04:34;;;;;;;8.25;2.38;;;;;;;;;;5036141;28;20049;-75
2023/04/11 02:07:00;;;;;;;8.88;2.10;;;;;;;;;;5054688;28;20040;-75
2023/04/11 02:09:26;;;;;;;6.93;1.90;;;;;;;;;;5036070;28;20048;-75
2023/04/11 02:11:52;;;;;;;6.82;2.33;;;;;;;;;;5036174;28;20041;-75
2023/04/11 02:14:19;;;;;;;6.25;1.60;;;;;;;;;;5053939;28;20098;-75
2023/04/11 02:16:49;;;;;;;6.65;1.75;;;;;;;;;;5036760;28;20067;-74
2023/04/11 02:19:15;;;;;;;5.68;1.75;;;;;;;;;;5054169;28;20119;-74
2023/04/11 02:21:41;;;;;;;6.57;1.88;;;;;;;;;;5053443;28;20033;-76
2023/04/11 02:24:07;;;;;;;4.68;1.50;;;;;;;;;;5036377;28;20053;-75
2023/04/11 02:26:33;;;;;;;4.90;1.60;;;;;;;;;;5036231;28;20436;-75
2023/04/11 02:28:59;;;;;;;7.53;1.85;;;;;;;;;;5054323;28;20045;-75
2023/04/11 02:31:25;;;;;;;5.13;1.60;;;;;;;;;;5047056;28;20067;-75
2023/04/11 02:33:51;;;;;;;4.53;1.65;;;;;;;;;;5054153;28;20386;-75
2023/04/11 02:36:17;;;;;;;5.78;1.65;;;;;;;;;;5053525;28;20489;-75
2023/04/11 02:38:43;;;;;;;5.93;1.63;;;;;;;;;;5061764;28;20041;-75
2023/04/11 02:41:09;;;;;;;6.50;1.70;;;;;;;;;;5056934;28;20048;-75
2023/04/11 02:43:35;;;;;;;6.28;1.70;;;;;;;;;;5051585;28;20060;-76
2023/04/11 02:46:01;;;;;;;5.70;1.63;;;;;;;;;;5052913;28;20071;-75
2023/04/11 02:48:27;;;;;;;4.70;1.52;;;;;;;;;;5054013;28;20048;-75
2023/04/11 02:50:54;;;;;;;8.30;1.83;;;;;;;;;;5036363;28;20452;-75
2023/04/11 02:53:20;;;;;;;4.13;1.30;;;;;;;;;;5052581;28;20037;-75
2023/04/11 02:55:46;;;;;;;6.70;1.88;;;;;;;;;;5035993;28;20048;-75
2023/04/11 02:58:16;;;;;;;6.43;1.90;;;;;;;;;;5053255;28;20551;-75
2023/04/11 03:00:42;;;;;;;5.03;1.70;;;;;;;;;;5053509;28;20411;-75
2023/04/11 03:03:08;;;;;;;4.10;1.70;;;;;;;;;;5052082;28;20041;-75
2023/04/11 03:05:34;;;;;;;5.20;1.88;;;;;;;;;;5051878;28;20044;-75
2023/04/11 03:08:00;;;;;;;6.93;1.75;;;;;;;;;;5052310;28;20043;-75
2023/04/11 03:10:26;;;;;;;6.53;2.00;;;;;;;;;;5053581;28;20104;-75
2023/04/11 03:12:52;;;;;;;5.70;2.22;;;;;;;;;;5053452;28;20056;-75
2023/04/11 03:15:19;;;;;;;6.18;2.20;;;;;;;;;;5051622;28;20068;-76
2023/04/11 03:17:45;;;;;;;7.03;2.20;;;;;;;;;;5051524;28;20045;-75
2023/04/11 03:20:12;;;;;;;4.60;1.98;;;;;;;;;;5053024;28;20141;-75
2023/04/11 03:22:38;;;;;;;6.50;2.22;;;;;;;;;;5052702;28;20045;-75
2023/04/11 03:25:05;;;;;;;6.40;2.10;;;;;;;;;;5053063;28;20049;-75
2023/04/11 03:27:31;;;;;;;4.32;1.75;;;;;;;;;;5052258;28;20098;-75
2023/04/11 03:29:57;;;;;;;5.68;2.25;;;;;;;;;;5052259;28;20045;-75
2023/04/11 03:32:23;;;;;;;9.15;2.30;;;;;;;;;;5034701;28;20056;-75
2023/04/11 03:34:50;;;;;;;8.13;2.13;;;;;;;;;;5032526;28;20057;-75
2023/04/11 03:37:16;;;;;;;8.90;2.05;;;;;;;;;;5051573;28;20549;-76
2023/04/11 03:39:42;;;;;;;8.07;2.35;;;;;;;;;;5031422;28;20128;-77
2023/04/11 03:42:08;;;;;;;7.15;2.08;;;;;;;;;;5033267;28;20128;-74
2023/04/11 03:44:34;;;;;;;6.63;2.15;;;;;;;;;;5034123;28;20515;-75
2023/04/11 03:47:00;;;;;;;10.18;2.42;;;;;;;;;;5052530;28;20115;-75
2023/04/11 03:49:26;;;;;;;10.75;2.15;;;;;;;;;;5052232;28;20105;-76
2023/04/11 03:51:52;;;;;;;9.00;2.63;;;;;;;;;;5051929;28;20041;-76
2023/04/11 03:54:18;;;;;;;10.63;3.13;;;;;;;;;;5052115;28;20099;-75
2023/04/11 03:56:44;;;;;;;6.63;2.28;;;;;;;;;;5052472;28;20037;-75
2023/04/11 03:59:10;;;;;;;9.60;2.50;;;;;;;;;;5052895;28;20057;-75
2023/04/11 04:01:36;;;;;;;11.00;2.97;;;;;;;;;;5017879;28;20055;-75
2023/04/11 04:04:03;;;;;;;8.48;2.78;;;;;;;;;;5034112;28;20044;-75
2023/04/11 04:06:29;;;;;;;9.52;2.50;;;;;;;;;;5051705;28;20077;-75
2023/04/11 04:08:55;;;;;;;9.05;2.65;;;;;;;;;;5052027;28;20458;-75
2023/04/11 04:11:21;;;;;;;13.00;2.83;;;;;;;;;;5051321;28;20480;-75
2023/04/11 04:13:47;;;;;;;11.07;2.95;;;;;;;;;;5028810;28;20149;-75
2023/04/11 04:16:13;;;;;;;9.45;2.45;;;;;;;;;;5030922;28;20131;-75
2023/04/11 04:18:39;;;;;;;15.15;3.30;;;;;;;;;;5033922;28;20129;-75
2023/04/11 04:21:07;;;;;;;9.07;2.85;;;;;;;;;;5051969;28;20513;-75
2023/04/11 04:23:34;;;;;;;10.50;2.85;;;;;;;;;;5033545;28;20094;-75
2023/04/11 04:26:01;;;;;;;12.18;3.08;;;;;;;;;;5051840;28;20041;-75
2023/04/11 04:28:27;;;;;;;9.18;2.70;;;;;;;;;;5051731;28;20060;-75
2023/04/11 04:30:56;;;;;;;14.43;3.65;;;;;;;;;;5049400;28;20053;-76
2023/04/11 04:33:23;;;;;;;8.93;2.55;;;;;;;;;;5049042;28;20383;-75
2023/04/11 04:35:56;;;;;;;14.82;3.22;;;;;;;;;;5033977;28;20124;-75
2023/04/11 04:38:24;;;;;;;11.57;3.03;;;;;;;;;;5051266;28;20044;-75
2023/04/11 04:40:53;;;;;;;8.43;2.70;;;;;;;;;;5051696;28;20124;-75
2023/04/11 04:43:21;;;;;;;11.73;3.30;;;;;;;;;;5033592;28;20107;-75
2023/04/11 04:45:47;;;;;;;12.40;2.72;;;;;;;;;;5052887;28;20032;-75
2023/04/11 04:48:13;;;;;;;12.48;3.00;;;;;;;;;;5055694;28;20045;-75
2023/04/11 04:50:40;;;;;;;10.77;3.00;;;;;;;;;;5056006;28;20045;-75
2023/04/11 04:53:06;;;;;;;10.63;3.28;;;;;;;;;;5021491;28;20053;-75
2023/04/11 04:55:33;;;;;;;10.93;3.42;;;;;;;;;;5056102;28;20128;-75
2023/04/11 04:57:59;;;;;;;10.20;2.72;;;;;;;;;;5056041;28;20110;-75
2023/04/11 05:00:25;;;;;;;10.70;2.95;;;;;;;;;;5055692;28;20132;-75
2023/04/11 05:02:53;;;;;;;13.48;3.30;;;;;;;;;;5037700;28;20383;-75
2023/04/11 05:05:19;;;;;;;11.48;3.15;;;;;;;;;;5055876;28;20053;-75
2023/04/11 05:07:46;;;;;;;13.18;3.67;;;;;;;;;;5055924;28;20080;-76
2023/04/11 05:10:11;;;;;;;11.05;3.42;;;;;;;;;;5037968;28;20099;-76
2023/04/11 05:12:37;;;;;;;10.50;3.15;;;;;;;;;;5053107;28;20099;-75
2023/04/11 05:15:04;;;;;;;9.57;2.88;;;;;;;;;;5046181;28;20104;-75
2023/04/11 05:17:30;;;;;;;21.90;3.42;;;;;;;;;;5054698;28;20037;-75
2023/04/11 05:19:56;;;;;;;21.10;3.20;;;;;;;;;;5020647;28;20432;-75
2023/04/11 05:22:22;;;;;;;13.95;3.42;;;;;;;;;;5020092;28;20041;-75
2023/04/11 05:24:48;;;;;;;13.45;3.95;;;;;;;;;;5036649;28;20049;-75
2023/04/11 05:27:14;;;;;;;13.38;3.38;;;;;;;;;;5061988;28;20060;-75
2023/04/11 05:29:40;;;;;;;12.35;3.40;;;;;;;;;;5057850;28;20067;-75
2023/04/11 05:32:06;;;;;;;13.95;3.20;;;;;;;;;;5054318;28;20056;-75
2023/04/11 05:34:33;;;;;;;14.15;3.67;;;;;;;;;;5036573;28;20103;-75
2023/04/11 05:37:00;;;;;;;12.63;3.15;;;;;;;;;;5020330;28;20048;-75
2023/04/11 05:39:26;;;;;;;14.32;3.47;;;;;;;;;;5035998;28;20049;-75
2023/04/11 05:41:52;;;;;;;11.23;3.78;;;;;;;;;;5054852;28;20435;-76
2023/04/11 05:44:18;;;;;;;12.38;3.28;;;;;;;;;;5036596;28;20480;-75
2023/04/11 05:46:44;;;;;;;14.68;3.30;;;;;;;;;;5036075;28;20068;-76
2023/04/11 05:49:10;;;;;;;11.52;3.20;;;;;;;;;;5054708;28;20084;-75
2023/04/11 05:51:36;;;;;;;10.45;3.42;;;;;;;;;;5054291;28;20052;-76
2023/04/11 05:54:02;;;;;;;11.93;3.30;;;;;;;;;;5054485;28;20057;-75
2023/04/11 05:56:28;;;;;;;8.70;3.00;;;;;;;;;;5034998;28;20146;-76
2023/04/11 05:58:54;;;;;;;11.02;3.08;;;;;;;;;;5036390;28;20052;-76
2023/04/11 06:01:21;;;;;;;13.05;3.42;;;;;;;;;;5035929;28;20067;-76
2023/04/11 06:03:47;;;;;;;13.07;3.42;;;;;;;;;;5036688;28;20047;-76
2023/04/11 06:06:13;;;;;;;15.13;3.10;;;;;;;;;;5036379;28;20040;-76
2023/04/11 06:08:39;;;;;;;13.50;2.92;;;;;;;;;;5036279;28;20168;-75
2023/04/11 06:11:06;;;;;;;11.57;3.20;;;;;;;;;;5036479;28;20095;-76
2023/04/11 06:13:32;;;;;;;13.63;3.33;;;;;;;;;;5035560;28;20121;-75
2023/04/11 06:15:58;;;;;;;11.60;3.15;;;;;;;;;;5035857;28;20382;-77
2023/04/11 06:18:24;;;;;;;12.18;3.20;;;;;;;;;;5051734;28;20091;-75
2023/04/11 06:20:50;;;;;;;12.40;3.33;;;;;;;;;;5035257;28;20497;-76
2023/04/11 06:23:16;;;;;;;12.98;3.42;;;;;;;;;;5049046;28;20506;-76
2023/04/11 06:25:42;;;;;;;11.13;3.20;;;;;;;;;;5032643;28;20051;-76
2023/04/11 06:28:11;;;;;;;14.45;3.72;;;;;;;;;;5054510;28;20523;-76
2023/04/11 06:30:37;;;;;;;11.82;3.97;;;;;;;;;;5040231;28;20055;-76
2023/04/11 06:33:03;;;;;;;11.88;3.53;;;;;;;;;;5053818;28;20127;-76
2023/04/11 06:35:29;;;;;;;14.80;3.45;;;;;;;;;;5052809;28;20087;-73
2023/04/11 06:37:55;;;;;;;14.85;3.53;;;;;;;;;;5051912;28;20045;-75
2023/04/11 06:40:21;;;;;;;13.07;3.15;;;;;;;;;;5048199;28;20116;-75
2023/04/11 06:42:47;;;;;;;15.75;3.30;;;;;;;;;;5047570;28;20466;-76
2023/04/11 06:45:13;;;;;;;11.38;3.13;;;;;;;;;;5033744;28;20048;-75
2023/04/11 06:47:40;;;;;;;13.38;3.20;;;;;;;;;;5030748;28;20056;-76
2023/04/11 06:50:06;;;;;;;16.67;3.47;;;;;;;;;;5033487;28;20041;-75
2023/04/11 06:52:32;;;;;;;19.30;4.50;;;;;;;;;;5029148;28;20132;-75
2023/04/11 06:54:58;;;;;;;13.80;3.63;;;;;;;;;;5049372;28;20498;-76
2023/04/11 06:57:24;;;;;;;14.85;3.63;;;;;;;;;;5053469;28;20099;-75
2023/04/11 06:59:50;;;;;;;15.65;3.10;;;;;;;;;;5034652;28;20045;-76
2023/04/11 07:02:16;;;;;;;16.38;3.20;;;;;;;;;;5053140;28;20036;-75
2023/04/11 07:04:42;;;;;;;13.77;3.47;;;;;;;;;;5053464;28;20051;-75
2023/04/11 07:07:08;;;;;;;14.43;3.47;;;;;;;;;;5053304;28;20047;-76
2023/04/11 07:09:35;;;;;;;15.63;3.50;;;;;;;;;;5049086;28;20442;-75
2023/04/11 07:12:01;;;;;;;17.42;3.38;;;;;;;;;;5052776;28;20044;-75
2023/04/11 07:14:27;;;;;;;15.02;3.33;;;;;;;;;;5047366;28;20041;-75
2023/04/11 07:16:53;;;;;;;17.17;3.13;;;;;;;;;;5053268;28;20064;-76
2023/04/11 07:19:19;;;;;;;11.13;3.08;;;;;;;;;;5045537;28;20045;-76
2023/04/11 07:21:45;;;;;;;16.95;3.10;;;;;;;;;;5046481;28;20055;-75
2023/04/11 07:24:12;;;;;;;15.07;3.25;;;;;;;;;;5050701;28;20405;-76
2023/04/11 07:26:41;;;;;;;12.00;3.67;;;;;;;;;;5044466;28;20037;-76
2023/04/11 07:29:07;;;;;;;15.82;3.35;;;;;;;;;;5051630;28;20068;-76
2023/04/11 07:31:33;;;;;;;14.95;3.05;;;;;;;;;;5047590;28;20049;-76
2023/04/11 07:33:59;;;;;;;15.73;3.40;;;;;;;;;;5020655;28;20171;-75
2023/04/11 07:36:25;;;;;;;14.65;3.25;;;;;;;;;;5043619;28;20049;-75
2023/04/11 07:38:51;;;;;;;15.65;2.95;;;;;;;;;;5052983;28;20119;-76
2023/04/11 07:41:17;;;;;;;15.30;3.33;;;;;;;;;;5052220;28;20402;-76
2023/04/11 07:43:43;;;;;;;11.13;3.25;;;;;;;;;;5049399;28;20106;-76
2023/04/11 07:46:10;;;;;;;15.82;3.58;;;;;;;;;;5044729;28;20041;-76
2023/04/11 07:48:36;;;;;;;8.98;3.40;;;;;;;;;;5050758;28;20051;-75
2023/04/11 07:51:02;;;;;;;9.68;2.70;;;;;;;;;;5052025;28;20033;-75
2023/04/11 07:53:31;;;;;;;16.17;3.33;;;;;;;;;;5047413;28;20048;-76
2023/04/11 07:55:57;;;;;;;12.45;2.90;;;;;;;;;;5049749;28;20547;-75
2023/04/11 07:58:23;;;;;;;12.00;3.22;;;;;;;;;;5052747;28;20045;-75
2023/04/11 08:00:51;;;;;;;12.35;3.17;;;;;;;;;;5050277;28;20067;-75
2023/04/11 08:03:18;;;;;;;10.07;2.78;;;;;;;;;;5052571;28;20508;-74
2023/04/11 08:05:44;;;;;;;11.68;2.80;;;;;;;;;;5049690;28;20048;-75
2023/04/11 08:08:10;;;;;;;13.23;3.08;;;;;;;;;;5044613;28;20139;-76
2023/04/11 08:10:36;;;;;;;14.30;2.45;;;;;;;;;;5033711;28;20359;-76
2023/04/11 08:13:02;;;;;;;10.93;3.00;;;;;;;;;;5050160;28;20516;-76
2023/04/11 08:15:28;;;;;;;8.02;2.30;;;;;;;;;;5051261;28;20096;-76
2023/04/11 08:17:55;;;;;;;13.65;3.25;;;;;;;;;;5057905;28;20425;-75
2023/04/11 08:20:21;;;;;;;16.50;2.78;;;;;;;;;;5054451;28;20043;-75
2023/04/11 08:22:47;;;;;;;14.77;3.72;;;;;;;;;;5051011;28;20115;-75
2023/04/11 08:25:14;;;;;;;12.32;3.03;;;;;;;;;;5051840;28;20121;-76
2023/04/11 08:27:40;;;;;;;13.95;3.47;;;;;;;;;;5052362;28;20055;-76
2023/04/11 08:30:10;;;;;;;12.65;2.88;;;;;;;;;;5051167;28;20560;-76
2023/04/11 08:32:36;;;;;;;14.93;3.05;;;;;;;;;;5051456;28;20190;-76
2023/04/11 08:35:02;;;;;;;10.57;2.55;;;;;;;;;;5051701;28;20500;-76
2023/04/11 08:37:29;;;;;;;10.73;3.03;;;;;;;;;;5052219;28;20052;-76
2023/04/11 08:39:58;;;;;;;12.38;3.30;;;;;;;;;;5034020;28;20504;-76
2023/04/11 08:42:25;;;;;;;12.52;2.50;;;;;;;;;;5052148;28;20053;-76
2023/04/11 08:44:58;;;;;;;9.27;2.47;;;;;;;;;;5017502;28;20049;-76
2023/04/11 08:47:25;;;;;;;9.93;2.60;;;;;;;;;;5043937;28;20041;-76
2023/04/11 08:49:51;;;;;;;19.27;3.47;;;;;;;;;;5031514;28;20045;-76
2023/04/11 08:52:20;;;;;;;11.25;2.75;;;;;;;;;;5013275;28;20562;-76
2023/04/11 08:54:47;;;;;;;12.02;2.83;;;;;;;;;;5012965;28;20045;-76
2023/04/11 08:57:26;;;;;;;19.58;2.97;;;;;;;;;;5032061;28;20124;-76
2023/04/11 08:59:56;;;;;;;9.60;2.70;;;;;;;;;;5031851;28;20045;-76
2023/04/11 09:02:22;;;;;;;7.90;2.20;;;;;;;;;;5049029;28;20041;-77
2023/04/11 09:04:48;;;;;;;7.13;2.03;;;;;;;;;;5031814;28;20041;-77
2023/04/11 09:07:15;;;;;;;8.90;1.83;;;;;;;;;;5051827;28;20397;-74
2023/04/11 09:09:42;;;;;;;8.52;2.38;;;;;;;;;;5051687;28;20048;-74
2023/04/11 09:12:08;;;;;;;7.38;2.08;;;;;;;;;;5016655;28;20134;-74
2023/04/11 09:14:34;;;;;;;11.57;2.63;;;;;;;;;;5051334;28;20118;-75
2023/04/11 09:17:03;;;;;;;12.35;2.78;;;;;;;;;;5051967;28;20125;-74
2023/04/11 09:19:33;;;;;;;12.40;2.85;;;;;;;;;;5034036;28;20425;-74
2023/04/11 09:22:00;;;;;;;9.13;2.60;;;;;;;;;;5033763;28;20048;-75
2023/04/11 09:24:26;;;;;;;8.82;2.50;;;;;;;;;;5033552;28;20049;-76
2023/04/11 09:27:11;;;;;;;9.48;2.13;;;;;;;;;;5033396;28;20075;-76
2023/04/11 09:29:39;;;;;;;9.65;2.10;;;;;;;;;;5050697;28;20132;-75
2023/04/11 09:32:05;;;;;;;6.97;2.10;;;;;;;;;;5054712;28;20118;-76
2023/04/11 09:34:32;;;;;;;8.15;1.95;;;;;;;;;;5054425;28;20045;-76
2023/04/11 09:37:00;;;;;;;12.43;2.22;;;;;;;;;;5055556;28;20057;-77
2023/04/11 09:39:28;;;;;;;9.35;2.15;;;;;;;;;;5037620;28;20045;-76
2023/04/11 09:41:54;;;;;;;8.25;2.40;;;;;;;;;;5055399;28;20091;-76
2023/04/11 09:44:34;;;;;;;7.32;1.60;;;;;;;;;;5055290;28;20045;-76
2023/04/11 09:47:00;;;;;;;3.95;1.40;;;;;;;;;;5050232;28;20141;-76
2023/04/11 09:49:26;;;;;;;3.35;1.55;;;;;;;;;;5034184;28;20069;-76
2023/04/11 09:51:52;;;;;;;5.28;1.75;;;;;;;;;;5015623;28;20045;-76
2023/04/11 09:54:21;;;;;;;7.25;2.00;;;;;;;;;;5033573;28;20057;-77
2023/04/11 09:56:47;;;;;;;9.48;2.33;;;;;;;;;;5034857;28;20370;-75
2023/04/11 09:59:15;;;;;;;12.75;2.45;;;;;;;;;;5035077;28;20045;-76
2023/04/11 10:01:41;;;;;;;11.55;2.17;;;;;;;;;;5034839;28;20096;-75
2023/04/11 10:04:09;;;;;;;4.55;1.60;;;;;;;;;;5034626;28;20073;-76
2023/04/11 10:06:58;;;;;;;3.70;1.40;;;;;;;;;;5034675;28;20077;-76
2023/04/11 10:09:26;;;;;;;5.90;1.50;;;;;;;;;;5016849;28;20046;-76
2023/04/11 10:11:52;;;;;;;6.05;1.60;;;;;;;;;;5034640;28;20095;-76
2023/04/11 10:14:36;;;;;;;9.23;1.90;;;;;;;;;;5034518;28;20052;-76
2023/04/11 10:17:16;;;;;;;4.10;1.50;;;;;;;;;;5017002;28;20421;-75
2023/04/11 10:19:47;;;;;;;3.47;1.60;;;;;;;;;;5049708;28;20053;-75
2023/04/11 10:22:45;;;;;;;4.70;1.63;;;;;;;;;;5034515;28;20464;-75
2023/04/11 10:25:23;;;;;;;7.10;1.98;;;;;;;;;;5001233;28;20060;-76
2023/04/11 10:27:59;;;;;;;6.47;1.90;;;;;;;;;;5033038;28;20053;-76
2023/04/11 10:30:40;;;;;;;5.60;1.80;;;;;;;;;;5018475;28;20055;-75
2023/04/11 10:33:16;;;;;;;7.22;1.80;;;;;;;;;;5047363;28;20041;-75
2023/04/11 10:36:08;;;;;;;5.50;1.45;;;;;;;;;;5052999;28;20052;-75
2023/04/11 10:38:42;;;;;;;7.30;1.67;;;;;;;;;;5047547;28;20553;-75
2023/04/11 10:41:17;;;;;;;4.00;1.50;;;;;;;;;;5052760;28;20045;-77
2023/04/11 10:43:43;;;;;;;5.15;1.77;;;;;;;;;;5054117;28;20085;-77
2023/04/11 10:46:17;;;;;;;6.65;1.95;;;;;;;;;;5053024;28;20456;-77
2023/04/11 10:48:59;;;;;;;3.42;1.40;;;;;;;;;;5052888;28;20044;-76
2023/04/11 10:51:26;;;;;;;2.92;1.30;;;;;;;;;;5069370;28;20134;-76
2023/04/11 10:53:52;;;;;;;4.88;1.55;;;;;;;;;;5054259;28;20036;-77
2023/04/11 10:56:37;;;;;;;6.72;1.50;;;;;;;;;;5054185;28;20040;-76
2023/04/11 10:59:03;;;;;;;8.10;2.03;;;;;;;;;;5052400;28;20049;-76
2023/04/11 11:01:29;;;;;;;4.20;1.92;;;;;;;;;;5053607;28;20060;-77
2023/04/11 11:03:55;;;;;;;7.97;2.08;;;;;;;;;;5053983;28;20094;-75
2023/04/11 11:06:22;;;;;;;7.15;1.92;;;;;;;;;;5052402;28;20049;-75
2023/04/11 11:08:48;;;;;;;8.10;2.00;;;;;;;;;;5053608;28;20156;-75
2023/04/11 11:11:15;;;;;;;7.90;2.15;;;;;;;;;;5052288;28;20041;-77
2023/04/11 11:13:42;;;;;;;7.50;2.10;;;;;;;;;;5052882;28;20053;-77
2023/04/11 11:16:09;;;;;;;8.30;2.20;;;;;;;;;;5053569;28;20064;-74
2023/04/11 11:18:36;;;;;;;8.68;2.05;;;;;;;;;;5052969;28;20055;-75
2023/04/11 11:21:02;;;;;;;6.45;2.30;;;;;;;;;;5050030;28;20482;-75
2023/04/11 11:23:28;;;;;;;7.03;2.10;;;;;;;;;;5054179;28;20056;-75
2023/04/11 11:25:55;;;;;;;6.28;2.05;;;;;;;;;;5052838;28;20049;-75
2023/04/11 11:28:22;;;;;;;7.38;2.00;;;;;;;;;;5052121;28;20041;-75
2023/04/11 11:30:54;;;;;;;5.88;1.90;;;;;;;;;;5053012;28;20214;-75
2023/04/11 11:33:22;;;;;;;5.55;2.05;;;;;;;;;;5034870;28;20052;-75
2023/04/11 11:35:52;;;;;;;6.05;1.73;;;;;;;;;;5050436;28;20135;-76
2023/04/11 11:38:22;;;;;;;6.85;1.90;;;;;;;;;;5052625;28;20045;-75
2023/04/11 11:40:48;;;;;;;6.35;1.98;;;;;;;;;;5035165;28;20131;-75
2023/04/11 11:43:15;;;;;;;6.15;1.70;;;;;;;;;;5053316;28;20048;-76
2023/04/11 11:45:41;;;;;;;4.97;1.55;;;;;;;;;;5053146;28;20044;-74
2023/04/11 11:48:07;;;;;;;5.03;1.80;;;;;;;;;;5039061;28;20498;-74
2023/04/11 11:50:34;;;;;;;7.63;1.90;;;;;;;;;;5015504;28;20164;-75
2023/04/11 11:53:13;;;;;;;4.57;1.52;;;;;;;;;;5015320;28;20034;-74
2023/04/11 11:55:39;;;;;;;7.55;1.90;;;;;;;;;;5014892;28;20049;-74
2023/04/11 11:58:05;;;;;;;3.30;1.55;;;;;;;;;;5014957;28;20101;-74
2023/04/11 12:00:36;;;;;;;5.55;1.85;;;;;;;;;;5016689;28;20041;-75
2023/04/11 12:03:03;;;;;;;5.72;2.10;;;;;;;;;;5052423;28;20045;-74
2023/04/11 12:05:30;;;;;;;7.28;2.05;;;;;;;;;;5053403;28;20061;-74
2023/04/11 12:07:58;;;;;;;7.90;2.10;;;;;;;;;;5056843;28;20036;-75
2023/04/11 12:10:25;;;;;;;7.03;2.20;;;;;;;;;;5066435;28;20436;-76
2023/04/11 12:12:51;;;;;;;8.63;2.42;;;;;;;;;;5034553;28;20084;-76
2023/04/11 12:15:20;;;;;;;6.82;2.22;;;;;;;;;;5034292;28;20052;-75
2023/04/11 12:17:50;;;;;;;7.93;2.20;;;;;;;;;;5034113;28;20079;-75
2023/04/11 12:20:21;;;;;;;7.53;2.00;;;;;;;;;;5051937;28;20076;-75
2023/04/11 12:22:47;;;;;;;7.43;2.10;;;;;;;;;;5052239;28;20445;-74
2023/04/11 12:25:13;;;;;;;6.20;2.00;;;;;;;;;;5052200;28;20127;-76
2023/04/11 12:27:40;;;;;;;10.10;2.45;;;;;;;;;;5051809;28;20041;-74
2023/04/11 12:30:07;;;;;;;8.85;2.30;;;;;;;;;;5051745;28;20145;-75
2023/04/11 12:32:33;;;;;;;11.60;2.72;;;;;;;;;;5033381;28;20039;-74
2023/04/11 12:35:00;;;;;;;6.97;2.17;;;;;;;;;;5048559;28;20045;-75
2023/04/11 12:37:26;;;;;;;4.97;1.80;;;;;;;;;;5050709;28;20078;-75
2023/04/11 12:39:52;;;;;;;7.88;1.80;;;;;;;;;;5034307;28;20064;-74
2023/04/11 12:42:18;;;;;;;8.98;1.90;;;;;;;;;;5070529;28;20048;-75
2023/04/11 12:44:44;;;;;;;8.32;1.98;;;;;;;;;;5054146;28;20388;-76
2023/04/11 12:47:10;;;;;;;9.45;2.30;;;;;;;;;;5059571;28;20045;-75
2023/04/11 12:49:36;;;;;;;9.82;2.55;;;;;;;;;;5028215;28;20045;-75
2023/04/11 12:52:02;;;;;;;12.10;2.78;;;;;;;;;;5033614;28;20068;-75
2023/04/11 12:54:29;;;;;;;11.10;2.60;;;;;;;;;;5051375;28;20049;-75
2023/04/11 12:56:57;;;;;;;7.88;2.10;;;;;;;;;;5034109;28;20049;-75
2023/04/11 12:59:23;;;;;;;8.73;1.90;;;;;;;;;;5051693;28;20053;-75
2023/04/11 13:01:49;;;;;;;6.75;1.85;;;;;;;;;;5033932;28;20044;-73
2023/04/11 13:04:15;;;;;;;9.52;2.00;;;;;;;;;;5033922;28;20122;-76
2023/04/11 13:06:42;;;;;;;10.73;2.50;;;;;;;;;;5037131;28;20393;-75
2023/04/11 13:09:08;;;;;;;8.70;2.30;;;;;;;;;;5038179;28;20409;-75
2023/04/11 13:11:34;;;;;;;11.45;2.63;;;;;;;;;;5055409;28;20128;-76
2023/04/11 13:14:00;;;;;;;8.77;2.45;;;;;;;;;;5037749;28;20049;-76
2023/04/11 13:16:26;;;;;;;8.88;2.38;;;;;;;;;;5055771;28;20091;-76
2023/04/11 13:18:52;;;;;;;15.38;2.80;;;;;;;;;;5055822;28;20080;-75
2023/04/11 13:21:18;;;;;;;10.68;2.65;;;;;;;;;;5037553;28;20072;-75
2023/04/11 13:23:44;;;;;;;13.13;3.15;;;;;;;;;;5055764;28;20049;-75
2023/04/11 13:26:10;;;;;;;11.57;2.83;;;;;;;;;;5038005;28;20064;-75
2023/04/11 13:28:39;;;;;;;12.57;3.05;;;;;;;;;;5055133;28;20049;-75
2023/04/11 13:31:09;;;;;;;16.70;2.75;;;;;;;;;;5055150;28;20059;-74
2023/04/11 13:33:35;;;;;;;15.05;3.30;;;;;;;;;;5020959;28;20136;-74
2023/04/11 13:36:01;;;;;;;12.35;3.00;;;;;;;;;;5037044;28;20132;-75
2023/04/11 13:38:27;;;;;;;11.23;2.90;;;;;;;;;;5055353;28;20064;-75
2023/04/11 13:40:54;;;;;;;12.38;2.70;;;;;;;;;;5054877;28;20551;-75
2023/04/11 13:43:21;;;;;;;11.45;2.80;;;;;;;;;;5055481;28;20056;-75
2023/04/11 13:45:47;;;;;;;10.77;2.83;;;;;;;;;;5037094;28;20040;-75
2023/04/11 13:48:13;;;;;;;10.10;2.40;;;;;;;;;;5040175;28;20116;-76
2023/04/11 13:50:39;;;;;;;12.75;2.65;;;;;;;;;;5014669;28;20149;-75
2023/04/11 13:53:05;;;;;;;13.73;3.00;;;;;;;;;;5035381;28;20080;-76
2023/04/11 13:55:31;;;;;;;14.63;2.97;;;;;;;;;;5017479;28;20088;-76
2023/04/11 13:57:57;;;;;;;14.90;3.13;;;;;;;;;;5017567;28;20445;-75
2023/04/11 14:00:23;;;;;;;10.77;2.65;;;;;;;;;;5034582;28;20375;-75
2023/04/11 14:02:50;;;;;;;13.50;3.20;;;;;;;;;;5017489;28;20093;-75
2023/04/11 14:05:16;;;;;;;11.55;2.65;;;;;;;;;;5017323;28;20057;-75
2023/04/11 14:07:42;;;;;;;10.23;2.50;;;;;;;;;;5017569;28;20076;-75
2023/04/11 14:10:09;;;;;;;12.40;2.97;;;;;;;;;;5015936;28;20106;-75
2023/04/11 14:12:36;;;;;;;8.35;2.60;;;;;;;;;;5000667;28;20041;-75
2023/04/11 14:15:03;;;;;;;13.60;2.92;;;;;;;;;;5034397;28;20049;-76
2023/04/11 14:17:29;;;;;;;9.88;2.65;;;;;;;;;;5015815;28;20045;-75
2023/04/11 14:19:55;;;;;;;11.43;2.47;;;;;;;;;;5034559;28;20041;-75
2023/04/11 14:22:21;;;;;;;11.32;2.70;;;;;;;;;;5035048;28;20128;-74
2023/04/11 14:24:47;;;;;;;14.13;2.50;;;;;;;;;;5036078;28;20453;-75
2023/04/11 14:27:13;;;;;;;8.90;2.83;;;;;;;;;;5054022;28;20043;-75
2023/04/11 14:29:40;;;;;;;8.75;2.60;;;;;;;;;;5056036;28;20121;-74
2023/04/11 14:32:06;;;;;;;12.40;2.78;;;;;;;;;;5037237;28;20446;-75
2023/04/11 14:34:32;;;;;;;10.88;2.58;;;;;;;;;;5034135;28;20050;-75
2023/04/11 14:36:58;;;;;;;10.63;2.38;;;;;;;;;;5014152;28;20049;-74